createdAt,value
2024-02-20T00:01:47.659Z,101296.53
2024-02-20T00:04:51.406Z,101293.31
2024-02-20T00:07:57.381Z,101284.84
2024-02-20T00:11:00.828Z,101293.47
2024-02-20T00:14:04.124Z,101272.44
2024-02-20T00:17:08.583Z,101281.13
2024-02-20T00:20:11.537Z,101276.94
2024-02-20T00:23:15.822Z,101272.19
2024-02-20T00:26:19.971Z,101282.06
2024-02-20T00:29:22.662Z,101276.88
2024-02-20T00:32:25.532Z,101270.63
2024-02-20T00:35:28.612Z,101279.53
2024-02-20T00:38:31.709Z,101280.78
2024-02-20T00:41:34.655Z,101282.13
2024-02-20T00:44:37.132Z,101272.75
2024-02-20T00:47:39.904Z,101271.75
2024-02-20T00:50:42.630Z,101267.00
2024-02-20T00:53:47.100Z,101251.59
2024-02-20T00:56:49.525Z,101255.22
2024-02-20T00:59:52.326Z,101253.34
2024-02-20T01:02:54.794Z,101263.41
2024-02-20T01:05:57.812Z,101251.97
2024-02-20T01:09:00.359Z,101258.94
2024-02-20T01:12:04.091Z,101263.31
2024-02-20T01:15:07.759Z,101267.19
2024-02-20T01:18:10.836Z,101263.66
2024-02-20T01:21:13.496Z,101251.09
2024-02-20T01:24:16.298Z,101258.31
2024-02-20T01:27:19.061Z,101258.88
2024-02-20T01:30:22.644Z,101252.19
2024-02-20T01:33:25.153Z,101246.38
2024-02-20T01:36:27.941Z,101243.84
2024-02-20T01:39:30.407Z,101230.06
2024-02-20T01:42:33.957Z,101231.44
2024-02-20T01:45:36.820Z,101217.16
2024-02-20T01:48:39.962Z,101230.53
2024-02-20T01:51:42.878Z,101218.75
2024-02-20T01:54:46.770Z,101212.38
2024-02-20T01:57:50.096Z,101205.56
2024-02-20T02:00:53.306Z,101205.22
2024-02-20T02:03:56.778Z,101201.41
2024-02-20T02:06:59.585Z,101196.37
2024-02-20T02:10:02.844Z,101196.03
2024-02-20T02:13:05.843Z,101198.84
2024-02-20T02:16:10.102Z,101197.16
2024-02-20T02:19:12.635Z,101196.81
2024-02-20T02:22:15.528Z,101196.13
2024-02-20T02:25:18.449Z,101189.84
2024-02-20T02:28:21.519Z,101189.28
2024-02-20T02:31:24.572Z,101190.44
2024-02-20T02:34:31.172Z,101187.88
2024-02-20T02:37:34.205Z,101193.91
2024-02-20T02:40:37.576Z,101196.88
2024-02-20T02:43:40.876Z,101195.97
2024-02-20T02:46:44.079Z,101203.50
2024-02-20T02:49:46.938Z,101206.31
2024-02-20T02:52:49.982Z,101208.56
2024-02-20T02:55:52.641Z,101210.34
2024-02-20T02:58:56.726Z,101218.66
2024-02-20T03:01:59.568Z,101216.22
2024-02-20T03:05:02.602Z,101218.94
2024-02-20T03:08:05.939Z,101221.97
2024-02-20T03:11:09.210Z,101219.25
2024-02-20T03:14:13.498Z,101210.69
2024-02-20T03:17:16.644Z,101218.47
2024-02-20T03:20:20.794Z,101212.91
2024-02-20T03:23:23.899Z,101208.53
2024-02-20T03:26:29.967Z,101204.56
2024-02-20T03:29:32.733Z,101202.72
2024-02-20T03:32:35.308Z,101207.41
2024-02-20T03:35:38.212Z,101210.31
2024-02-20T03:38:41.344Z,101205.88
2024-02-20T03:41:44.731Z,101213.06
2024-02-20T03:44:47.662Z,101221.72
2024-02-20T03:47:50.731Z,101218.81
2024-02-20T03:50:54.065Z,101208.25
2024-02-20T03:53:56.965Z,101220.63
2024-02-20T03:56:59.447Z,101219.22
2024-02-20T04:00:05.769Z,101231.41
2024-02-20T04:03:10.057Z,101225.72
2024-02-20T04:06:13.066Z,101222.38
2024-02-20T04:09:15.816Z,101231.19
2024-02-20T04:12:18.455Z,101219.53
2024-02-20T04:15:21.883Z,101235.50
2024-02-20T04:18:24.750Z,101237.09
2024-02-20T04:21:27.793Z,101250.13
2024-02-20T04:24:30.256Z,101253.84
2024-02-20T04:27:33.563Z,101256.66
2024-02-20T04:30:36.269Z,101238.22
2024-02-20T04:33:39.129Z,101250.37
2024-02-20T04:36:41.730Z,101251.72
2024-02-20T04:39:47.779Z,101251.03
2024-02-20T04:42:50.450Z,101263.91
2024-02-20T04:45:53.369Z,101257.97
2024-02-20T04:48:56.699Z,101256.50
2024-02-20T04:52:00.219Z,101267.06
2024-02-20T04:55:04.542Z,101259.31
2024-02-20T04:58:07.861Z,101260.31
2024-02-20T05:01:10.851Z,101254.81
2024-02-20T05:04:14.294Z,101259.31
2024-02-20T05:07:17.148Z,101254.59
2024-02-20T05:10:20.361Z,101262.09
2024-02-20T05:13:23.091Z,101256.34
2024-02-20T05:16:25.956Z,101265.91
2024-02-20T05:19:28.548Z,101273.00
2024-02-20T05:22:31.632Z,101264.69
2024-02-20T05:25:34.319Z,101279.97
2024-02-20T05:28:37.097Z,101280.19
2024-02-20T05:31:39.716Z,101281.53
2024-02-20T05:34:43.414Z,101275.03
2024-02-20T05:37:47.273Z,101280.87
2024-02-20T05:40:50.157Z,101273.03
2024-02-20T05:43:58.155Z,101277.50
2024-02-20T05:47:01.240Z,101277.28
2024-02-20T05:50:05.557Z,101281.09
2024-02-20T05:53:10.262Z,101290.75
2024-02-20T05:56:13.152Z,101293.19
2024-02-20T05:59:17.340Z,101290.06
2024-02-20T06:02:20.250Z,101298.13
2024-02-20T06:05:24.973Z,101289.12
2024-02-20T06:08:27.880Z,101290.50
2024-02-20T06:11:31.027Z,101293.34
2024-02-20T06:14:33.661Z,101293.16
2024-02-20T06:17:36.646Z,101309.59
2024-02-20T06:20:41.163Z,101312.44
2024-02-20T06:23:44.047Z,101311.78
2024-02-20T06:26:46.768Z,101316.81
2024-02-20T06:29:49.765Z,101320.97
2024-02-20T06:32:54.214Z,101321.63
2024-02-20T06:35:57.398Z,101326.59
2024-02-20T06:39:00.261Z,101329.09
2024-02-20T06:42:03.407Z,101326.19
2024-02-20T06:45:06.851Z,101324.53
2024-02-20T06:48:10.321Z,101319.00
2024-02-20T06:51:13.397Z,101318.88
2024-02-20T06:54:16.350Z,101319.53
2024-02-20T06:57:18.738Z,101318.94
2024-02-20T07:00:22.153Z,101326.97
2024-02-20T07:03:24.684Z,101318.50
2024-02-20T07:06:32.450Z,101326.84
2024-02-20T07:09:36.615Z,101330.16
2024-02-20T07:12:39.505Z,101326.56
2024-02-20T07:15:42.146Z,101327.03
2024-02-20T07:18:45.308Z,101328.28
2024-02-20T07:21:48.146Z,101325.91
2024-02-20T07:24:50.858Z,101333.34
2024-02-20T07:27:53.625Z,101321.00
2024-02-20T07:30:56.929Z,101324.91
2024-02-20T07:34:09.068Z,101327.66
2024-02-20T07:37:13.602Z,101325.47
2024-02-20T07:40:16.630Z,101333.81
2024-02-20T07:43:19.716Z,101330.69
2024-02-20T07:46:22.983Z,101337.06
2024-02-20T07:49:26.604Z,101345.00
2024-02-20T07:52:29.907Z,101342.78
2024-02-20T07:55:33.393Z,101350.91
2024-02-20T07:58:44.455Z,101338.59
2024-02-20T08:01:53.191Z,101335.00
2024-02-20T08:04:56.543Z,101339.44
2024-02-20T08:07:59.535Z,101341.81
2024-02-20T08:11:02.713Z,101349.28
2024-02-20T08:14:05.496Z,101339.75
2024-02-20T08:17:08.523Z,101329.13
2024-02-20T08:20:11.794Z,101339.84
2024-02-20T08:23:14.590Z,101333.53
2024-02-20T08:26:17.781Z,101336.31
2024-02-20T08:29:20.763Z,101330.91
2024-02-20T08:32:23.232Z,101333.59
2024-02-20T08:35:26.074Z,101334.44
2024-02-20T08:38:28.810Z,101339.16
2024-02-20T08:41:32.412Z,101333.00
2024-02-20T08:44:35.568Z,101346.25
2024-02-20T08:47:39.016Z,101346.19
2024-02-20T08:50:42.091Z,101344.47
2024-02-20T08:53:46.769Z,101344.28
2024-02-20T08:56:49.624Z,101336.22
2024-02-20T08:59:52.395Z,101340.69
2024-02-20T09:02:56.478Z,101340.12
2024-02-20T09:05:59.638Z,101337.00
2024-02-20T09:09:02.498Z,101338.94
2024-02-20T09:12:05.697Z,101338.91
2024-02-20T09:15:08.829Z,101341.94
2024-02-20T09:18:12.965Z,101338.37
2024-02-20T09:21:17.758Z,101344.91
2024-02-20T09:24:20.871Z,101355.47
2024-02-20T09:27:23.429Z,101354.81
2024-02-20T09:30:26.172Z,101365.41
2024-02-20T09:33:30.757Z,101357.81
2024-02-20T09:36:33.534Z,101362.47
2024-02-20T09:39:36.029Z,101360.25
2024-02-20T09:42:45.563Z,101361.19
2024-02-20T09:45:51.113Z,101362.78
2024-02-20T09:48:55.116Z,101368.00
2024-02-20T09:51:59.742Z,101367.66
2024-02-20T09:55:04.927Z,101368.56
2024-02-20T09:58:07.693Z,101366.50
2024-02-20T10:01:11.707Z,101366.28
2024-02-20T10:04:14.917Z,101363.50
2024-02-20T10:07:20.019Z,101368.22
2024-02-20T10:10:24.784Z,101366.56
2024-02-20T10:13:27.528Z,101370.78
2024-02-20T10:16:30.822Z,101373.31
2024-02-20T10:19:33.549Z,101364.16
2024-02-20T10:22:36.705Z,101364.78
2024-02-20T10:25:39.740Z,101364.78
2024-02-20T10:28:44.484Z,101358.50
2024-02-20T10:31:47.370Z,101351.97
2024-02-20T10:35:03.701Z,101340.78
2024-02-20T10:38:06.857Z,101337.66
2024-02-20T10:41:10.294Z,101325.16
2024-02-20T10:44:13.125Z,101316.28
2024-02-20T10:47:17.494Z,101323.44
2024-02-20T10:50:20.491Z,101322.38
2024-02-20T10:53:25.395Z,101323.66
2024-02-20T10:56:28.568Z,101308.19
2024-02-20T10:59:31.458Z,101306.62
2024-02-20T11:02:34.913Z,101307.75
2024-02-20T11:05:38.218Z,101304.03
2024-02-20T11:08:40.864Z,101299.81
2024-02-20T11:11:44.140Z,101302.44
2024-02-20T11:14:47.003Z,101291.63
2024-02-20T11:17:57.482Z,101294.09
2024-02-20T11:21:04.220Z,101283.41
2024-02-20T11:24:14.822Z,101288.28
2024-02-20T11:27:29.912Z,101284.87
2024-02-20T11:30:32.797Z,101282.75
2024-02-20T11:33:36.313Z,101278.28
2024-02-20T11:36:44.270Z,101266.22
2024-02-20T11:39:47.103Z,101264.66
2024-02-20T11:42:51.142Z,101262.78
2024-02-20T11:46:01.120Z,101260.19
2024-02-20T11:49:04.512Z,101251.75
2024-02-20T11:52:08.696Z,101249.66
2024-02-20T11:55:12.467Z,101251.09
2024-02-20T11:58:21.450Z,101238.62
2024-02-20T12:01:30.068Z,101242.97
2024-02-20T12:04:33.047Z,101248.44
2024-02-20T12:07:36.233Z,101246.25
2024-02-20T12:10:39.104Z,101243.28
2024-02-20T12:13:42.428Z,101247.34
2024-02-20T12:16:46.557Z,101242.94
2024-02-20T12:19:50.450Z,101245.38
2024-02-20T12:23:01.047Z,101236.25
2024-02-20T12:26:07.537Z,101234.59
2024-02-20T12:29:10.269Z,101234.34
2024-02-20T12:32:16.786Z,101233.09
2024-02-20T12:35:19.629Z,101239.59
2024-02-20T12:38:22.461Z,101234.78
2024-02-20T12:41:25.403Z,101227.28
2024-02-20T12:44:28.137Z,101223.09
2024-02-20T12:47:31.299Z,101230.47
2024-02-20T12:50:35.273Z,101220.75
2024-02-20T12:53:39.621Z,101214.66
2024-02-20T12:56:42.325Z,101212.16
2024-02-20T12:59:45.330Z,101208.09
2024-02-20T13:02:47.855Z,101214.78
2024-02-20T13:05:50.758Z,101220.53
2024-02-20T13:08:53.994Z,101211.78
2024-02-20T13:12:05.428Z,101215.25
2024-02-20T13:15:09.332Z,101219.75
2024-02-20T13:18:12.109Z,101217.25
2024-02-20T13:21:15.597Z,101209.94
2024-02-20T13:24:18.643Z,101209.31
2024-02-20T13:27:22.658Z,101213.50
2024-02-20T13:30:25.868Z,101212.28
2024-02-20T13:33:28.853Z,101214.06
2024-02-20T13:36:31.827Z,101212.75
2024-02-20T13:39:34.836Z,101207.19
2024-02-20T13:42:37.635Z,101205.28
2024-02-20T13:45:48.668Z,101206.91
2024-02-20T13:48:52.662Z,101212.53
2024-02-20T13:51:55.326Z,101220.16
2024-02-20T13:54:58.464Z,101224.25
2024-02-20T13:58:01.373Z,101221.28
2024-02-20T14:01:05.267Z,101215.22
2024-02-20T14:04:08.264Z,101207.38
2024-02-20T14:07:13.081Z,101201.03
2024-02-20T14:10:18.591Z,101207.16
2024-02-20T14:13:21.389Z,101210.53
2024-02-20T14:16:24.405Z,101210.72
2024-02-20T14:19:27.315Z,101208.00
2024-02-20T14:22:30.468Z,101211.22
2024-02-20T14:25:33.735Z,101209.31
2024-02-20T14:28:40.680Z,101211.53
2024-02-20T14:31:43.273Z,101213.84
2024-02-20T14:34:46.269Z,101209.38
2024-02-20T14:37:49.080Z,101217.00
2024-02-20T14:40:52.763Z,101217.00
2024-02-20T14:43:55.389Z,101224.84
2024-02-20T14:46:59.403Z,101216.78
2024-02-20T14:50:02.199Z,101226.19
2024-02-20T14:53:06.517Z,101225.72
2024-02-20T14:56:14.546Z,101230.66
2024-02-20T14:59:18.000Z,101234.03
2024-02-20T15:02:20.950Z,101242.50
2024-02-20T15:05:24.150Z,101244.06
2024-02-20T15:08:27.909Z,101240.34
2024-02-20T15:11:31.407Z,101236.78
2024-02-20T15:14:35.344Z,101230.47
2024-02-20T15:17:38.798Z,101227.56
2024-02-20T15:20:44.157Z,101242.41
2024-02-20T15:23:47.599Z,101238.84
2024-02-20T15:26:50.055Z,101236.66
2024-02-20T15:29:53.790Z,101243.37
2024-02-20T15:32:56.421Z,101252.62
2024-02-20T15:35:59.395Z,101251.38
2024-02-20T15:39:01.896Z,101250.16
2024-02-20T15:42:06.330Z,101252.31
2024-02-20T15:45:09.644Z,101251.97
2024-02-20T15:48:14.753Z,101252.53
2024-02-20T15:51:18.548Z,101262.75
2024-02-20T15:54:21.311Z,101262.09
2024-02-20T15:57:24.221Z,101267.94
2024-02-20T16:00:27.316Z,101272.66
2024-02-20T16:03:30.321Z,101269.53
2024-02-20T16:06:34.760Z,101271.63
2024-02-20T16:09:37.637Z,101271.66
2024-02-20T16:12:41.525Z,101273.34
2024-02-20T16:15:46.126Z,101278.72
2024-02-20T16:18:49.615Z,101284.13
2024-02-20T16:21:52.682Z,101285.63
2024-02-20T16:24:55.619Z,101277.28
2024-02-20T16:27:58.991Z,101291.44
2024-02-20T16:31:01.484Z,101285.50
2024-02-20T16:34:04.497Z,101281.06
2024-02-20T16:37:07.381Z,101287.59
2024-02-20T16:40:11.128Z,101297.25
2024-02-20T16:43:13.800Z,101298.37
2024-02-20T16:46:16.863Z,101301.16
2024-02-20T16:49:19.741Z,101307.47
2024-02-20T16:52:23.398Z,101322.50
2024-02-20T16:55:26.209Z,101311.81
2024-02-20T16:58:29.211Z,101318.97
2024-02-20T17:01:31.886Z,101326.22
2024-02-20T17:04:34.820Z,101321.41
2024-02-20T17:07:37.518Z,101326.88
2024-02-20T17:10:40.613Z,101317.22
2024-02-20T17:13:43.511Z,101327.25
2024-02-20T17:16:49.188Z,101330.47
2024-02-20T17:19:53.002Z,101330.09
2024-02-20T17:22:55.872Z,101334.94
2024-02-20T17:25:58.568Z,101331.91
2024-02-20T17:29:01.350Z,101338.56
2024-02-20T17:32:04.898Z,101327.19
2024-02-20T17:35:08.059Z,101347.50
2024-02-20T17:38:11.151Z,101343.84
2024-02-20T17:41:21.591Z,101341.87
2024-02-20T17:44:24.323Z,101345.16
2024-02-20T17:47:27.327Z,101331.19
2024-02-20T17:50:31.837Z,101354.38
2024-02-20T17:53:34.774Z,101353.38
2024-02-20T17:56:37.433Z,101359.28
2024-02-20T17:59:41.140Z,101354.09
2024-02-20T18:02:43.996Z,101350.31
2024-02-20T18:05:46.770Z,101350.12
2024-02-20T18:08:49.205Z,101348.97
2024-02-20T18:11:52.092Z,101344.38
2024-02-20T18:14:54.807Z,101350.28
2024-02-20T18:17:57.704Z,101352.69
2024-02-20T18:21:01.289Z,101337.22
2024-02-20T18:24:05.691Z,101353.09
2024-02-20T18:27:08.994Z,101360.78
2024-02-20T18:30:13.445Z,101365.37
2024-02-20T18:33:16.243Z,101354.28
2024-02-20T18:36:20.083Z,101363.25
2024-02-20T18:39:22.841Z,101379.19
2024-02-20T18:42:27.050Z,101370.97
2024-02-20T18:45:30.571Z,101366.78
2024-02-20T18:48:33.574Z,101384.84
2024-02-20T18:51:36.157Z,101401.28
2024-02-20T18:54:40.976Z,101394.22
2024-02-20T18:57:44.889Z,101392.34
2024-02-20T19:00:47.906Z,101397.72
2024-02-20T19:03:50.498Z,101392.69
2024-02-20T19:06:55.483Z,101387.97
2024-02-20T19:09:58.001Z,101393.25
2024-02-20T19:13:01.475Z,101400.50
2024-02-20T19:16:05.586Z,101405.97
2024-02-20T19:19:08.874Z,101405.16
2024-02-20T19:22:11.634Z,101399.97
2024-02-20T19:25:14.737Z,101398.16
2024-02-20T19:28:17.370Z,101400.75
2024-02-20T19:31:20.241Z,101397.34
2024-02-20T19:34:23.063Z,101396.56
2024-02-20T19:37:28.063Z,101389.56
2024-02-20T19:40:30.733Z,101394.84
2024-02-20T19:43:34.724Z,101393.31
2024-02-20T19:46:40.390Z,101393.00
2024-02-20T19:49:45.062Z,101387.16
2024-02-20T19:52:47.773Z,101394.69
2024-02-20T19:55:50.886Z,101378.09
2024-02-20T19:58:54.359Z,101399.59
2024-02-20T20:01:57.686Z,101405.12
2024-02-20T20:05:01.233Z,101402.28
2024-02-20T20:08:05.053Z,101405.50
2024-02-20T20:11:07.943Z,101412.41
2024-02-20T20:14:11.073Z,101399.69
2024-02-20T20:17:17.635Z,101406.59
2024-02-20T20:20:20.145Z,101390.09
2024-02-20T20:23:23.269Z,101388.00
2024-02-20T20:26:25.748Z,101389.72
2024-02-20T20:29:29.927Z,101399.13
2024-02-20T20:32:32.721Z,101398.16
2024-02-20T20:35:35.987Z,101394.56
2024-02-20T20:38:38.572Z,101396.09
2024-02-20T20:41:42.135Z,101398.53
2024-02-20T20:44:45.010Z,101400.13
2024-02-20T20:47:47.827Z,101399.25
2024-02-20T20:50:50.410Z,101397.44
2024-02-20T20:53:53.293Z,101395.12
2024-02-20T20:56:56.101Z,101405.78
2024-02-20T20:59:59.450Z,101404.00
2024-02-20T21:03:02.106Z,101407.41
2024-02-20T21:06:05.864Z,101400.59
2024-02-20T21:09:08.909Z,101392.28
2024-02-20T21:12:11.923Z,101400.34
2024-02-20T21:15:15.076Z,101401.12
2024-02-20T21:18:18.268Z,101395.12
2024-02-20T21:21:22.547Z,101396.56
2024-02-20T21:24:26.887Z,101394.59
2024-02-20T21:27:29.619Z,101392.91
2024-02-20T21:30:32.628Z,101402.50
2024-02-20T21:33:35.431Z,101399.81
2024-02-20T21:36:38.698Z,101400.50
2024-02-20T21:39:41.642Z,101402.19
2024-02-20T21:42:44.743Z,101393.50
2024-02-20T21:45:47.507Z,101381.12
2024-02-20T21:48:51.366Z,101382.84
2024-02-20T21:51:53.933Z,101383.09
2024-02-20T21:54:56.705Z,101378.81
2024-02-20T21:57:59.556Z,101372.81
2024-02-20T22:01:02.734Z,101369.22
2024-02-20T22:04:05.726Z,101379.63
2024-02-20T22:07:08.426Z,101388.31
2024-02-20T22:10:16.019Z,101381.94
2024-02-20T22:13:18.980Z,101385.97
2024-02-20T22:16:21.777Z,101386.69
2024-02-20T22:19:24.506Z,101383.75
2024-02-20T22:22:27.531Z,101389.41
2024-02-20T22:25:30.028Z,101390.81
2024-02-20T22:28:33.765Z,101394.94
2024-02-20T22:31:38.127Z,101398.97
2024-02-20T22:34:44.688Z,101396.63
2024-02-20T22:37:47.694Z,101395.97
2024-02-20T22:40:50.749Z,101399.16
2024-02-20T22:43:53.776Z,101393.78
2024-02-20T22:46:56.684Z,101399.69
2024-02-20T22:49:59.334Z,101402.91
2024-02-20T22:53:02.269Z,101410.50
2024-02-20T22:56:05.129Z,101409.41
2024-02-20T22:59:07.930Z,101401.62
2024-02-20T23:02:10.507Z,101401.44
2024-02-20T23:05:13.607Z,101400.28
2024-02-20T23:08:16.363Z,101395.09
2024-02-20T23:11:19.531Z,101403.75
2024-02-20T23:14:21.984Z,101402.78
2024-02-20T23:17:25.006Z,101402.06
2024-02-20T23:20:27.657Z,101399.37
2024-02-20T23:23:30.497Z,101400.09
2024-02-20T23:26:33.240Z,101406.78
2024-02-20T23:29:36.208Z,101404.72
2024-02-20T23:32:38.888Z,101399.03
2024-02-20T23:35:41.861Z,101398.06
2024-02-20T23:38:45.774Z,101402.44
2024-02-20T23:41:49.889Z,101403.16
2024-02-20T23:44:52.543Z,101406.53
2024-02-20T23:47:55.353Z,101410.94
2024-02-20T23:50:57.895Z,101404.84
2024-02-20T23:54:01.479Z,101395.97
2024-02-20T23:57:06.377Z,101390.88
